createdAt,value
2018-05-09T00:00:43.643Z,20.50
2018-05-09T00:03:11.844Z,20.30
2018-05-09T00:05:39.323Z,20.30
2018-05-09T00:08:06.788Z,20.30
2018-05-09T00:10:34.230Z,20.30
2018-05-09T00:13:01.711Z,20.30
2018-05-09T00:15:29.160Z,20.20
2018-05-09T00:17:56.670Z,20.20
2018-05-09T00:20:25.098Z,20.00
2018-05-09T00:22:52.542Z,20.00
2018-05-09T00:25:19.982Z,19.90
2018-05-09T00:27:47.641Z,19.90
2018-05-09T00:30:15.534Z,19.90
2018-05-09T00:32:42.969Z,19.90
2018-05-09T00:35:11.037Z,19.80
2018-05-09T00:37:38.979Z,19.80
2018-05-09T00:40:06.497Z,19.80
2018-05-09T00:42:34.335Z,19.80
2018-05-09T00:45:02.137Z,19.80
2018-05-09T00:47:30.964Z,19.80
2018-05-09T00:49:58.467Z,19.70
2018-05-09T00:52:25.925Z,19.80
2018-05-09T00:54:53.999Z,19.80
2018-05-09T00:57:22.040Z,19.70
2018-05-09T00:59:49.506Z,19.60
2018-05-09T01:02:16.945Z,19.60
2018-05-09T01:04:44.424Z,19.50
2018-05-09T01:07:11.859Z,19.50
2018-05-09T01:09:39.531Z,19.50
2018-05-09T01:12:06.977Z,19.40
2018-05-09T01:14:35.225Z,19.40
2018-05-09T01:17:02.723Z,19.40
2018-05-09T01:19:30.322Z,19.40
2018-05-09T01:21:58.647Z,19.30
2018-05-09T01:24:26.173Z,19.30
2018-05-09T01:26:53.638Z,19.30
2018-05-09T01:29:21.938Z,19.30
2018-05-09T01:31:49.807Z,19.30
2018-05-09T01:34:17.570Z,19.30
2018-05-09T01:36:45.497Z,19.20
2018-05-09T01:39:12.946Z,19.20
2018-05-09T01:41:40.892Z,19.10
2018-05-09T01:44:08.343Z,19.10
2018-05-09T01:46:36.311Z,19.00
2018-05-09T01:49:03.747Z,19.00
2018-05-09T01:51:31.268Z,18.90
2018-05-09T01:53:59.473Z,18.80
2018-05-09T01:56:28.270Z,18.70
2018-05-09T01:58:55.711Z,18.70
2018-05-09T02:01:23.527Z,18.70
2018-05-09T02:03:50.966Z,18.60
2018-05-09T02:06:18.853Z,18.60
2018-05-09T02:08:46.357Z,18.60
2018-05-09T02:11:14.607Z,18.50
2018-05-09T02:13:42.233Z,18.50
2018-05-09T02:16:09.689Z,18.50
2018-05-09T02:18:37.155Z,18.50
2018-05-09T02:21:05.275Z,18.50
2018-05-09T02:23:33.507Z,18.50
2018-05-09T02:26:00.964Z,18.50
2018-05-09T02:28:28.426Z,18.50
2018-05-09T02:30:56.375Z,18.50
2018-05-09T02:33:23.839Z,18.50
2018-05-09T02:35:51.531Z,18.40
2018-05-09T02:38:19.804Z,18.40
2018-05-09T02:40:48.660Z,18.40
2018-05-09T02:43:16.593Z,18.30
2018-05-09T02:45:45.215Z,18.30
2018-05-09T02:48:15.274Z,18.30
2018-05-09T02:50:42.735Z,18.30
2018-05-09T02:53:11.071Z,18.20
2018-05-09T02:55:38.509Z,18.20
2018-05-09T02:58:06.473Z,18.20
2018-05-09T03:00:33.918Z,18.20
2018-05-09T03:03:02.744Z,18.10
2018-05-09T03:05:30.187Z,18.10
2018-05-09T03:08:00.600Z,18.10
2018-05-09T03:10:28.184Z,18.00
2018-05-09T03:12:56.250Z,18.00
2018-05-09T03:15:24.006Z,17.90
2018-05-09T03:17:51.914Z,17.90
2018-05-09T03:20:19.514Z,17.90
2018-05-09T03:22:46.912Z,17.90
2018-05-09T03:25:14.575Z,17.90
2018-05-09T03:27:42.799Z,17.90
2018-05-09T03:30:10.589Z,17.90
2018-05-09T03:32:38.057Z,17.90
2018-05-09T03:35:05.906Z,17.90
2018-05-09T03:37:33.363Z,17.90
2018-05-09T03:40:01.051Z,17.90
2018-05-09T03:42:29.025Z,17.80
2018-05-09T03:44:56.973Z,17.80
2018-05-09T03:47:25.131Z,17.70
2018-05-09T03:49:52.739Z,17.70
2018-05-09T03:52:20.953Z,17.50
2018-05-09T03:54:48.763Z,17.50
2018-05-09T03:57:17.359Z,17.50
2018-05-09T03:59:45.631Z,17.40
2018-05-09T04:05:25.542Z,17.30
2018-05-09T04:08:05.452Z,17.30
2018-05-09T04:10:32.997Z,17.30
2018-05-09T04:13:01.031Z,17.20
2018-05-09T04:15:30.045Z,17.20
2018-05-09T04:17:57.592Z,17.20
2018-05-09T04:20:25.202Z,17.20
2018-05-09T04:22:53.136Z,17.30
2018-05-09T04:25:20.920Z,17.30
2018-05-09T04:27:48.405Z,17.30
2018-05-09T04:30:18.818Z,17.20
2018-05-09T04:32:46.364Z,17.20
2018-05-09T04:35:14.931Z,17.30
2018-05-09T04:37:42.921Z,17.30
2018-05-09T04:40:10.394Z,17.30
2018-05-09T04:42:38.245Z,17.30
2018-05-09T04:45:05.689Z,17.40
2018-05-09T04:47:34.547Z,17.40
2018-05-09T04:50:02.521Z,17.40
2018-05-09T04:52:29.988Z,17.50
2018-05-09T04:54:57.733Z,17.50
2018-05-09T04:57:25.896Z,17.50
2018-05-09T04:59:53.352Z,17.50
2018-05-09T05:02:21.438Z,17.50
2018-05-09T05:04:48.886Z,17.50
2018-05-09T05:07:16.351Z,17.60
2018-05-09T05:09:45.342Z,17.60
2018-05-09T05:12:12.948Z,17.60
2018-05-09T05:14:40.421Z,17.70
2018-05-09T05:17:08.335Z,17.80
2018-05-09T05:19:36.587Z,17.90
2018-05-09T05:22:04.476Z,17.90
2018-05-09T05:24:31.942Z,18.00
2018-05-09T05:27:02.752Z,18.00
2018-05-09T05:29:30.868Z,18.20
2018-05-09T05:31:58.680Z,18.10
2018-05-09T05:34:26.293Z,18.20
2018-05-09T05:36:54.922Z,18.40
2018-05-09T05:39:22.777Z,18.40
2018-05-09T05:41:51.625Z,18.50
2018-05-09T05:44:19.134Z,18.60
2018-05-09T05:46:47.247Z,18.60
2018-05-09T05:49:15.840Z,18.80
2018-05-09T05:51:44.327Z,18.80
2018-05-09T05:54:11.797Z,18.80
2018-05-09T05:56:40.278Z,19.00
2018-05-09T05:59:08.583Z,19.10
2018-05-09T06:01:36.273Z,19.10
2018-05-09T06:04:03.716Z,19.20
2018-05-09T06:06:31.191Z,19.30
2018-05-09T06:08:58.847Z,19.40
2018-05-09T06:11:26.347Z,19.40
2018-05-09T06:13:53.953Z,19.50
2018-05-09T06:16:21.718Z,19.60
2018-05-09T06:18:49.263Z,19.70
2018-05-09T06:21:16.749Z,19.80
2018-05-09T06:23:44.517Z,19.80
2018-05-09T06:26:11.972Z,19.90
2018-05-09T06:28:39.558Z,20.00
2018-05-09T06:31:07.275Z,20.10
2018-05-09T06:33:34.741Z,20.10
2018-05-09T06:36:02.704Z,20.20
2018-05-09T06:38:30.159Z,20.30
2018-05-09T06:40:57.912Z,20.30
2018-05-09T06:43:25.728Z,20.40
2018-05-09T06:45:54.373Z,20.60
2018-05-09T06:48:22.367Z,20.50
2018-05-09T06:50:51.082Z,20.70
2018-05-09T06:53:18.529Z,20.70
2018-05-09T06:55:46.265Z,20.80
2018-05-09T06:58:14.334Z,20.90
2018-05-09T07:00:42.754Z,21.00
2018-05-09T07:03:11.791Z,21.00
2018-05-09T07:05:40.019Z,20.90
2018-05-09T07:08:08.092Z,21.10
2018-05-09T07:10:35.597Z,21.20
2018-05-09T07:13:03.047Z,21.30
2018-05-09T07:15:30.556Z,21.40
2018-05-09T07:17:58.027Z,21.40
2018-05-09T07:20:25.546Z,21.50
2018-05-09T07:22:53.800Z,21.60
2018-05-09T07:25:22.076Z,21.50
2018-05-09T07:27:49.564Z,21.60
2018-05-09T07:30:18.110Z,21.80
2018-05-09T07:32:45.783Z,21.80
2018-05-09T07:35:13.661Z,21.80
2018-05-09T07:37:42.142Z,22.00
2018-05-09T07:40:09.625Z,21.90
2018-05-09T07:42:37.714Z,22.00
2018-05-09T07:45:05.227Z,22.10
2018-05-09T07:47:33.467Z,22.20
2018-05-09T07:50:00.907Z,22.20
2018-05-09T07:52:28.353Z,22.30
2018-05-09T07:54:56.152Z,22.40
2018-05-09T07:57:24.118Z,22.40
2018-05-09T07:59:51.589Z,22.50
2018-05-09T08:02:19.453Z,22.60
2018-05-09T08:04:47.328Z,22.60
2018-05-09T08:07:14.798Z,22.70
2018-05-09T08:09:42.284Z,22.70
2018-05-09T08:12:10.332Z,22.80
2018-05-09T08:14:37.818Z,22.80
2018-05-09T08:17:06.216Z,22.90
2018-05-09T08:19:33.784Z,23.00
2018-05-09T08:22:01.398Z,23.00
2018-05-09T08:24:29.072Z,23.10
2018-05-09T08:26:56.514Z,23.10
2018-05-09T08:29:23.992Z,23.20
2018-05-09T08:31:52.808Z,23.30
2018-05-09T08:34:20.235Z,23.40
2018-05-09T08:36:48.234Z,23.40
2018-05-09T08:39:16.005Z,23.50
2018-05-09T08:41:43.774Z,23.60
2018-05-09T08:44:11.244Z,23.70
2018-05-09T08:46:39.087Z,23.80
2018-05-09T08:49:07.075Z,23.90
2018-05-09T08:51:34.504Z,24.00
2018-05-09T08:54:02.395Z,24.10
2018-05-09T08:56:30.459Z,24.20
2018-05-09T08:58:58.728Z,24.20
2018-05-09T09:01:26.266Z,24.30
2018-05-09T09:03:53.881Z,24.40
2018-05-09T09:06:22.105Z,24.60
2018-05-09T09:08:50.135Z,24.60
2018-05-09T09:11:17.948Z,24.60
2018-05-09T09:13:45.449Z,24.70
2018-05-09T09:16:13.657Z,24.90
2018-05-09T09:18:41.205Z,24.80
2018-05-09T09:21:08.611Z,25.00
2018-05-09T09:23:36.511Z,25.10
2018-05-09T09:26:03.971Z,25.10
2018-05-09T09:28:31.954Z,25.20
2018-05-09T09:30:59.807Z,25.40
2018-05-09T09:33:27.375Z,25.40
2018-05-09T09:35:55.248Z,25.50
2018-05-09T09:38:22.684Z,25.60
2018-05-09T09:40:50.857Z,25.70
2018-05-09T09:43:18.883Z,25.80
2018-05-09T09:45:47.032Z,25.90
2018-05-09T09:48:14.486Z,26.10
2018-05-09T09:50:42.037Z,26.20
2018-05-09T09:53:09.543Z,26.30
2018-05-09T09:55:37.082Z,26.40
2018-05-09T09:58:05.032Z,26.60
2018-05-09T10:00:32.464Z,26.70
2018-05-09T10:03:00.071Z,26.80
2018-05-09T10:05:27.532Z,26.90
2018-05-09T10:07:55.002Z,26.90
2018-05-09T10:10:22.808Z,27.10
2018-05-09T10:12:55.338Z,27.10
2018-05-09T10:15:24.028Z,27.30
2018-05-09T10:17:52.267Z,27.40
2018-05-09T10:20:19.723Z,27.40
2018-05-09T10:22:47.199Z,27.50
2018-05-09T10:25:14.647Z,27.60
2018-05-09T10:27:42.231Z,27.70
2018-05-09T10:30:10.005Z,27.80
2018-05-09T10:32:37.490Z,27.90
2018-05-09T10:35:05.552Z,28.10
2018-05-09T10:37:33.308Z,28.20
2018-05-09T10:40:01.967Z,28.30
2018-05-09T10:42:30.432Z,28.40
2018-05-09T10:44:58.683Z,28.60
2018-05-09T10:47:26.545Z,28.60
2018-05-09T10:49:54.004Z,28.70
2018-05-09T10:52:23.049Z,28.80
2018-05-09T10:54:50.510Z,28.90
2018-05-09T10:57:19.124Z,29.20
2018-05-09T10:59:47.034Z,29.20
2018-05-09T11:02:14.475Z,29.30
2018-05-09T11:04:41.936Z,29.50
2018-05-09T11:07:09.379Z,29.60
2018-05-09T11:09:36.936Z,29.60
2018-05-09T11:12:04.731Z,29.70
2018-05-09T11:14:32.290Z,29.80
2018-05-09T11:17:01.697Z,29.90
2018-05-09T11:19:29.134Z,29.90
2018-05-09T11:21:57.223Z,30.00
2018-05-09T11:24:24.696Z,29.90
2018-05-09T11:26:52.142Z,29.70
2018-05-09T11:29:19.964Z,29.60
2018-05-09T11:31:47.727Z,29.60
2018-05-09T11:34:15.568Z,29.60
2018-05-09T11:36:43.379Z,29.60
2018-05-09T11:39:10.900Z,29.60
2018-05-09T11:41:38.800Z,29.60
2018-05-09T11:44:06.357Z,29.60
2018-05-09T11:46:34.339Z,29.70
2018-05-09T11:52:32.805Z,29.70
2018-05-09T11:55:00.248Z,29.80
2018-05-09T11:57:28.136Z,29.80
2018-05-09T11:59:55.668Z,29.80
2018-05-09T12:02:23.685Z,29.90
2018-05-09T12:04:51.128Z,29.80
2018-05-09T12:07:18.617Z,29.70
2018-05-09T12:09:46.381Z,29.70
2018-05-09T12:12:13.884Z,29.70
2018-05-09T12:14:42.713Z,29.80
2018-05-09T12:17:10.508Z,29.80
2018-05-09T12:19:38.721Z,30.00
2018-05-09T12:22:06.200Z,29.90
2018-05-09T12:24:33.759Z,30.10
2018-05-09T12:27:01.184Z,30.20
2018-05-09T12:29:28.769Z,30.30
2018-05-09T12:31:56.665Z,30.30
2018-05-09T12:34:24.206Z,30.40
2018-05-09T12:36:52.101Z,30.50
2018-05-09T12:39:19.595Z,30.50
2018-05-09T12:41:48.324Z,30.50
2018-05-09T12:44:16.231Z,30.50
2018-05-09T12:46:45.094Z,30.20
2018-05-09T12:49:12.557Z,30.30
2018-05-09T12:51:40.799Z,30.30
2018-05-09T12:54:08.272Z,30.30
2018-05-09T12:56:36.751Z,30.40
2018-05-09T12:59:04.496Z,30.40
2018-05-09T13:01:32.162Z,30.40
2018-05-09T13:03:59.840Z,30.50
2018-05-09T13:06:27.393Z,30.50
2018-05-09T13:08:55.673Z,30.30
2018-05-09T13:11:23.751Z,30.30
2018-05-09T13:13:51.353Z,30.30
2018-05-09T13:16:19.224Z,30.20
2018-05-09T13:18:47.035Z,30.20
2018-05-09T13:21:14.472Z,30.30
2018-05-09T13:23:41.935Z,30.40
2018-05-09T13:26:09.586Z,30.50
2018-05-09T13:28:37.167Z,30.50
2018-05-09T13:31:05.840Z,30.50
2018-05-09T13:33:33.341Z,30.40
2018-05-09T13:36:02.088Z,30.10
2018-05-09T13:38:29.537Z,30.10
2018-05-09T13:40:57.619Z,30.00
2018-05-09T13:43:25.083Z,29.80
2018-05-09T13:45:53.073Z,29.70
2018-05-09T13:48:22.043Z,29.90
2018-05-09T13:50:49.904Z,29.90
2018-05-09T13:53:17.423Z,30.10
2018-05-09T13:55:44.872Z,30.30
2018-05-09T13:58:12.986Z,30.40
2018-05-09T14:00:40.468Z,30.50
2018-05-09T14:03:07.946Z,30.50
2018-05-09T14:05:36.678Z,30.40
2018-05-09T14:08:04.187Z,30.40
2018-05-09T14:10:31.805Z,30.30
2018-05-09T14:12:59.552Z,30.20
2018-05-09T14:15:27.113Z,30.10
2018-05-09T14:17:55.599Z,29.80
2018-05-09T14:20:23.118Z,29.80
2018-05-09T14:22:50.552Z,29.60
2018-05-09T14:25:18.951Z,29.40
2018-05-09T14:27:46.351Z,29.40
2018-05-09T14:30:14.339Z,29.30
2018-05-09T14:32:41.791Z,29.30
2018-05-09T14:35:09.748Z,29.30
2018-05-09T14:37:37.245Z,29.20
2018-05-09T14:40:05.623Z,29.20
2018-05-09T14:42:34.045Z,29.10
2018-05-09T14:45:02.760Z,29.10
2018-05-09T14:47:30.734Z,29.10
2018-05-09T14:49:58.660Z,29.00
2018-05-09T14:52:26.221Z,29.00
2018-05-09T14:54:54.143Z,28.90
2018-05-09T14:57:21.941Z,28.90
2018-05-09T14:59:49.404Z,28.90
2018-05-09T15:02:16.992Z,28.90
2018-05-09T15:04:44.440Z,29.00
2018-05-09T15:07:12.646Z,29.10
2018-05-09T15:09:40.079Z,29.30
2018-05-09T15:12:07.592Z,29.50
2018-05-09T15:14:35.081Z,29.60
2018-05-09T15:17:02.542Z,29.60
2018-05-09T15:19:30.127Z,29.70
2018-05-09T15:21:57.567Z,29.70
2018-05-09T15:24:25.068Z,29.60
2018-05-09T15:26:52.611Z,29.60
2018-05-09T15:29:20.862Z,29.60
2018-05-09T15:31:48.858Z,29.60
2018-05-09T15:34:17.092Z,29.50
2018-05-09T15:36:45.015Z,29.50
2018-05-09T15:39:13.352Z,29.30
2018-05-09T15:41:41.127Z,29.30
2018-05-09T15:44:08.640Z,29.30
2018-05-09T15:46:36.635Z,29.20
2018-05-09T15:49:04.574Z,29.10
2018-05-09T15:51:33.415Z,29.10
2018-05-09T15:54:01.673Z,29.10
2018-05-09T15:56:29.810Z,29.10
2018-05-09T15:58:57.274Z,29.10
2018-05-09T16:01:24.857Z,29.30
2018-05-09T16:03:52.791Z,29.40
2018-05-09T16:06:20.244Z,29.50
2018-05-09T16:08:47.724Z,29.50
2018-05-09T16:11:15.351Z,29.50
2018-05-09T16:13:43.099Z,29.40
2018-05-09T16:16:12.137Z,29.30
2018-05-09T16:18:39.703Z,29.30
2018-05-09T16:21:07.254Z,29.30
2018-05-09T16:23:35.206Z,29.30
2018-05-09T16:26:02.917Z,29.20
2018-05-09T16:28:30.904Z,29.10
2018-05-09T16:30:59.769Z,29.00
2018-05-09T16:33:27.271Z,29.00
2018-05-09T16:35:55.401Z,29.00
2018-05-09T16:38:22.910Z,29.00
2018-05-09T16:40:50.998Z,28.90
2018-05-09T16:43:18.459Z,29.00
2018-05-09T16:45:46.440Z,29.00
2018-05-09T16:48:13.901Z,29.10
2018-05-09T16:50:41.664Z,29.10
2018-05-09T16:53:09.230Z,29.20
2018-05-09T16:55:37.399Z,29.30
2018-05-09T16:58:05.087Z,29.30
2018-05-09T17:00:32.541Z,29.30
2018-05-09T17:03:00.073Z,29.30
2018-05-09T17:05:27.548Z,29.20
2018-05-09T17:07:56.020Z,29.20
2018-05-09T17:10:25.558Z,29.20
2018-05-09T17:12:53.856Z,29.20
2018-05-09T17:15:21.284Z,29.20
2018-05-09T17:17:49.589Z,29.10
2018-05-09T17:20:17.124Z,29.10
2018-05-09T17:22:44.611Z,29.10
2018-05-09T17:25:13.315Z,29.10
2018-05-09T17:27:40.928Z,29.00
2018-05-09T17:30:09.619Z,29.00
2018-05-09T17:32:37.095Z,28.90
2018-05-09T17:35:05.145Z,28.90
2018-05-09T17:37:32.660Z,28.90
2018-05-09T17:40:00.107Z,28.80
2018-05-09T17:42:28.130Z,28.80
2018-05-09T17:44:56.033Z,28.70
2018-05-09T17:47:24.026Z,28.60
2018-05-09T17:49:51.495Z,28.60
2018-05-09T17:52:18.974Z,28.50
2018-05-09T17:54:47.923Z,28.40
2018-05-09T17:57:16.007Z,28.30
2018-05-09T17:59:43.501Z,28.30
2018-05-09T18:02:11.718Z,28.20
2018-05-09T18:04:39.205Z,28.10
2018-05-09T18:07:07.167Z,28.10
2018-05-09T18:09:34.691Z,28.00
2018-05-09T18:12:02.246Z,27.90
2018-05-09T18:14:29.946Z,27.90
2018-05-09T18:16:57.472Z,27.80
2018-05-09T18:19:24.920Z,27.80
2018-05-09T18:21:52.524Z,27.70
2018-05-09T18:24:20.279Z,27.60
2018-05-09T18:26:47.830Z,27.50
2018-05-09T18:29:15.257Z,27.50
2018-05-09T18:31:43.171Z,27.40
2018-05-09T18:34:11.384Z,27.30
2018-05-09T18:36:39.229Z,27.20
2018-05-09T18:39:08.209Z,27.10
2018-05-09T18:41:36.915Z,27.10
2018-05-09T18:44:04.401Z,27.00
2018-05-09T18:46:32.267Z,27.00
2018-05-09T18:48:59.748Z,26.90
2018-05-09T18:51:27.309Z,26.80
2018-05-09T18:53:54.833Z,26.70
2018-05-09T18:56:22.939Z,26.70
2018-05-09T18:58:50.494Z,26.60
2018-05-09T19:01:18.326Z,26.60
2018-05-09T19:03:46.549Z,26.50
2018-05-09T19:06:14.555Z,26.40
2018-05-09T19:08:42.861Z,26.30
2018-05-09T19:11:10.341Z,26.30
2018-05-09T19:13:37.836Z,26.20
2018-05-09T19:16:05.445Z,26.20
2018-05-09T19:18:32.922Z,26.10
2018-05-09T19:21:00.548Z,26.20
2018-05-09T19:23:27.993Z,25.90
2018-05-09T19:25:55.667Z,25.90
2018-05-09T19:28:23.509Z,25.90
2018-05-09T19:30:51.593Z,25.80
2018-05-09T19:33:19.559Z,25.80
2018-05-09T19:35:47.610Z,25.70
2018-05-09T19:38:15.160Z,25.60
2018-05-09T19:40:43.928Z,25.50
2018-05-09T19:43:11.462Z,25.50
2018-05-09T19:45:39.440Z,25.50
2018-05-09T19:48:06.936Z,25.50
2018-05-09T19:50:35.429Z,25.40
2018-05-09T19:53:02.944Z,25.30
2018-05-09T19:55:30.875Z,25.30
2018-05-09T19:58:00.193Z,25.30
2018-05-09T20:00:28.461Z,25.20
2018-05-09T20:02:55.959Z,25.10
2018-05-09T20:05:23.568Z,25.10
2018-05-09T20:07:51.077Z,25.00
2018-05-09T20:10:18.682Z,24.90
2018-05-09T20:12:46.279Z,24.90
2018-05-09T20:15:14.421Z,24.80
2018-05-09T20:17:42.174Z,24.80
2018-05-09T20:20:09.953Z,24.70
2018-05-09T20:22:37.460Z,24.60
2018-05-09T20:25:06.574Z,24.60
2018-05-09T20:27:34.286Z,24.50
2018-05-09T20:30:03.735Z,24.50
2018-05-09T20:32:39.453Z,24.40
2018-05-09T20:35:07.708Z,24.40
2018-05-09T20:37:35.203Z,24.30
2018-05-09T20:40:03.629Z,24.20
2018-05-09T20:42:31.549Z,24.20
2018-05-09T20:44:59.918Z,24.10
2018-05-09T20:47:27.882Z,24.10
2018-05-09T20:49:55.394Z,24.00
2018-05-09T20:52:23.042Z,24.00
2018-05-09T20:54:51.354Z,24.00
2018-05-09T20:57:19.500Z,23.90
2018-05-09T20:59:47.740Z,23.90
2018-05-09T21:02:16.052Z,23.90
2018-05-09T21:04:43.532Z,23.80
2018-05-09T21:07:11.178Z,23.80
2018-05-09T21:09:38.710Z,23.80
2018-05-09T21:12:08.907Z,23.70
2018-05-09T21:14:37.185Z,23.70
2018-05-09T21:17:04.611Z,23.70
2018-05-09T21:19:32.182Z,23.70
2018-05-09T21:22:00.243Z,23.70
2018-05-09T21:24:27.816Z,23.70
2018-05-09T21:26:55.313Z,23.70
2018-05-09T21:29:23.565Z,23.60
2018-05-09T21:31:52.050Z,23.50
2018-05-09T21:34:20.413Z,23.50
2018-05-09T21:36:48.259Z,23.40
2018-05-09T21:39:15.784Z,23.40
2018-05-09T21:41:43.545Z,23.40
2018-05-09T21:44:11.014Z,23.30
2018-05-09T21:46:38.934Z,23.30
2018-05-09T21:49:06.395Z,23.20
2018-05-09T21:51:34.604Z,23.10
2018-05-09T21:54:02.206Z,23.10
2018-05-09T21:56:30.362Z,23.00
2018-05-09T21:58:57.846Z,23.00
2018-05-09T22:01:26.070Z,22.80
2018-05-09T22:03:54.644Z,22.80
2018-05-09T22:06:22.488Z,22.80
2018-05-09T22:08:51.403Z,22.80
2018-05-09T22:11:18.866Z,22.70
2018-05-09T22:13:46.441Z,22.70
2018-05-09T22:16:13.923Z,22.70
2018-05-09T22:18:41.524Z,22.70
2018-05-09T22:21:08.996Z,22.60
2018-05-09T22:23:36.480Z,22.60
2018-05-09T22:26:04.005Z,22.60
2018-05-09T22:28:31.457Z,22.60
2018-05-09T22:30:59.483Z,22.60
2018-05-09T22:33:27.193Z,22.50
2018-05-09T22:35:55.039Z,22.50
2018-05-09T22:38:22.483Z,22.50
2018-05-09T22:40:51.558Z,22.40
2018-05-09T22:43:19.015Z,22.40
2018-05-09T22:45:46.735Z,22.40
2018-05-09T22:48:14.224Z,22.40
2018-05-09T22:50:43.227Z,22.40
2018-05-09T22:53:10.658Z,22.40
2018-05-09T22:55:38.193Z,22.40
2018-05-09T22:58:05.995Z,22.30
2018-05-09T23:00:33.562Z,22.30
2018-05-09T23:03:01.531Z,22.20
2018-05-09T23:05:29.015Z,22.20
2018-05-09T23:07:57.239Z,22.10
2018-05-09T23:10:26.260Z,22.00
2018-05-09T23:12:53.703Z,22.00
2018-05-09T23:15:21.167Z,22.00
2018-05-09T23:17:48.608Z,21.90
2018-05-09T23:20:16.397Z,21.90
2018-05-09T23:22:43.858Z,21.90
2018-05-09T23:25:11.306Z,21.90
2018-05-09T23:27:38.840Z,21.80
2018-05-09T23:30:06.717Z,21.80
2018-05-09T23:32:34.249Z,21.80
2018-05-09T23:35:02.068Z,21.80
2018-05-09T23:37:30.311Z,21.80
2018-05-09T23:39:57.793Z,21.80
2018-05-09T23:42:25.556Z,21.80
2018-05-09T23:44:53.017Z,21.70
2018-05-09T23:47:21.721Z,21.60
2018-05-09T23:49:50.470Z,21.60
2018-05-09T23:52:17.980Z,21.60
2018-05-09T23:54:46.277Z,21.60
2018-05-09T23:57:14.188Z,21.50
2018-05-09T23:59:41.714Z,21.60
